createdAt,value
2023-05-02T00:00:51.359Z,100.00
2023-05-02T00:03:18.048Z,100.00
2023-05-02T00:05:45.093Z,100.00
2023-05-02T00:08:12.545Z,100.00
2023-05-02T00:10:39.103Z,100.00
2023-05-02T00:13:06.510Z,100.00
2023-05-02T00:15:32.979Z,99.44
2023-05-02T00:18:00.419Z,100.00
2023-05-02T00:20:27.133Z,100.00
2023-05-02T00:22:55.308Z,100.00
2023-05-02T00:25:21.917Z,100.00
2023-05-02T00:27:50.997Z,100.00
2023-05-02T00:30:18.548Z,100.00
2023-05-02T00:32:45.351Z,100.00
2023-05-02T00:35:12.340Z,100.00
2023-05-02T00:37:39.249Z,100.00
2023-05-02T00:40:08.075Z,100.00
2023-05-02T00:42:36.403Z,100.00
2023-05-02T00:45:06.816Z,100.00
2023-05-02T00:47:34.444Z,100.00
2023-05-02T00:50:01.974Z,100.00
2023-05-02T00:52:29.350Z,100.00
2023-05-02T00:54:56.659Z,100.00
2023-05-02T00:57:23.461Z,100.00
2023-05-02T00:59:51.148Z,100.00
2023-05-02T01:02:40.978Z,100.00
2023-05-02T01:05:17.776Z,100.00
2023-05-02T01:07:59.886Z,100.00
2023-05-02T01:10:38.818Z,100.00
2023-05-02T01:13:05.337Z,100.00
2023-05-02T01:15:33.859Z,100.00
2023-05-02T01:18:02.980Z,100.00
2023-05-02T01:20:33.073Z,100.00
2023-05-02T01:23:05.167Z,100.00
2023-05-02T01:25:41.479Z,100.00
2023-05-02T01:28:14.366Z,100.00
2023-05-02T01:30:43.475Z,100.00
2023-05-02T01:33:14.048Z,100.00
2023-05-02T01:35:43.834Z,100.00
2023-05-02T01:38:16.138Z,100.00
2023-05-02T01:40:45.947Z,100.00
2023-05-02T01:43:18.118Z,100.00
2023-05-02T01:45:47.298Z,100.00
2023-05-02T01:48:16.379Z,100.00
2023-05-02T01:50:45.880Z,100.00
2023-05-02T01:53:14.741Z,100.00
2023-05-02T01:55:44.718Z,100.00
2023-05-02T01:58:12.277Z,100.00
2023-05-02T02:00:39.993Z,100.00
2023-05-02T02:03:09.366Z,100.00
2023-05-02T02:05:37.800Z,100.00
2023-05-02T02:08:04.855Z,100.00
2023-05-02T02:10:40.300Z,100.00
2023-05-02T02:13:17.249Z,100.00
2023-05-02T02:15:48.032Z,100.00
2023-05-02T02:18:23.135Z,100.00
2023-05-02T02:20:51.875Z,100.00
2023-05-02T02:23:21.049Z,100.00
2023-05-02T02:25:50.701Z,100.00
2023-05-02T02:28:17.387Z,100.00
2023-05-02T02:30:44.072Z,100.00
2023-05-02T02:33:10.915Z,100.00
2023-05-02T02:35:48.642Z,100.00
2023-05-02T02:38:27.199Z,100.00
2023-05-02T02:40:59.391Z,100.00
2023-05-02T02:43:44.422Z,100.00
2023-05-02T02:46:17.107Z,100.00
2023-05-02T02:48:55.743Z,100.00
2023-05-02T02:51:35.453Z,100.00
2023-05-02T02:54:19.003Z,100.00
2023-05-02T02:57:02.839Z,100.00
2023-05-02T02:59:34.155Z,100.00
2023-05-02T03:02:08.899Z,100.00
2023-05-02T03:04:38.912Z,100.00
2023-05-02T03:07:05.568Z,100.00
2023-05-02T03:09:45.427Z,100.00
2023-05-02T03:12:12.321Z,100.00
2023-05-02T03:14:39.782Z,100.00
2023-05-02T03:17:08.425Z,100.00
2023-05-02T03:19:35.245Z,100.00
2023-05-02T03:22:01.811Z,100.00
2023-05-02T03:24:28.473Z,100.00
2023-05-02T03:26:59.669Z,100.00
2023-05-02T03:29:26.987Z,100.00
2023-05-02T03:31:53.609Z,100.00
2023-05-02T03:34:22.315Z,100.00
2023-05-02T03:36:49.342Z,100.00
2023-05-02T03:39:16.022Z,100.00
2023-05-02T03:41:43.813Z,100.00
2023-05-02T03:44:10.922Z,100.00
2023-05-02T03:46:37.773Z,100.00
2023-05-02T03:49:04.553Z,100.00
2023-05-02T03:51:31.159Z,100.00
2023-05-02T03:53:58.534Z,100.00
2023-05-02T03:56:25.140Z,100.00
2023-05-02T03:58:51.732Z,100.00
2023-05-02T04:01:18.519Z,100.00
2023-05-02T04:03:45.346Z,100.00
2023-05-02T04:06:13.182Z,100.00
2023-05-02T04:08:40.055Z,100.00
2023-05-02T04:11:07.236Z,100.00
2023-05-02T04:13:33.923Z,100.00
2023-05-02T04:16:00.578Z,100.00
2023-05-02T04:18:27.406Z,100.00
2023-05-02T04:20:54.064Z,100.00
2023-05-02T04:23:20.698Z,100.00
2023-05-02T04:25:56.404Z,100.00
2023-05-02T04:28:24.049Z,100.00
2023-05-02T04:30:50.814Z,100.00
2023-05-02T04:33:18.681Z,100.00
2023-05-02T04:35:45.689Z,100.00
2023-05-02T04:38:12.349Z,100.00
2023-05-02T04:40:39.144Z,100.00
2023-05-02T04:43:05.889Z,100.00
2023-05-02T04:45:32.812Z,100.00
2023-05-02T04:47:59.513Z,100.00
2023-05-02T04:50:28.343Z,100.00
2023-05-02T04:52:55.076Z,100.00
2023-05-02T04:55:21.830Z,100.00
2023-05-02T04:57:48.511Z,100.00
2023-05-02T05:00:15.594Z,100.00
2023-05-02T05:02:43.267Z,100.00
2023-05-02T05:05:10.260Z,100.00
2023-05-02T05:07:36.958Z,100.00
2023-05-02T05:10:03.858Z,100.00
2023-05-02T05:12:30.618Z,100.00
2023-05-02T05:14:57.413Z,100.00
2023-05-02T05:17:24.151Z,100.00
2023-05-02T05:19:50.783Z,100.00
2023-05-02T05:22:17.842Z,100.00
2023-05-02T05:24:51.871Z,100.00
2023-05-02T05:27:18.517Z,100.00
2023-05-02T05:29:45.166Z,100.00
2023-05-02T05:32:11.851Z,100.00
2023-05-02T05:34:39.043Z,100.00
2023-05-02T05:37:05.789Z,100.00
2023-05-02T05:39:32.705Z,100.00
2023-05-02T05:42:00.794Z,100.00
2023-05-02T05:44:27.427Z,100.00
2023-05-02T05:46:54.438Z,99.59
2023-05-02T05:49:22.222Z,95.07
2023-05-02T05:51:48.811Z,91.38
2023-05-02T05:54:17.175Z,86.20
2023-05-02T05:56:44.284Z,83.72
2023-05-02T05:59:10.971Z,79.55
2023-05-02T06:01:38.358Z,74.33
2023-05-02T06:04:05.392Z,71.81
2023-05-02T06:06:32.211Z,69.90
2023-05-02T06:08:58.935Z,67.26
2023-05-02T06:11:26.232Z,64.92
2023-05-02T06:13:53.262Z,61.63
2023-05-02T06:16:19.870Z,61.00
2023-05-02T06:18:47.413Z,60.71
2023-05-02T06:21:14.077Z,60.21
2023-05-02T06:23:41.113Z,60.85
2023-05-02T06:26:07.777Z,58.21
2023-05-02T06:28:34.370Z,58.13
2023-05-02T06:31:06.081Z,59.30
2023-05-02T06:33:33.649Z,58.19
2023-05-02T06:36:02.041Z,57.38
2023-05-02T06:38:29.394Z,56.13
2023-05-02T06:40:56.042Z,56.39
2023-05-02T06:43:22.757Z,56.96
2023-05-02T06:45:54.709Z,58.68
2023-05-02T06:48:21.764Z,59.19
2023-05-02T06:50:49.479Z,57.47
2023-05-02T06:53:16.399Z,58.13
2023-05-02T06:55:44.358Z,56.17
2023-05-02T06:58:11.405Z,56.71
2023-05-02T07:00:38.115Z,55.12
2023-05-02T07:03:04.944Z,55.06
2023-05-02T07:05:31.678Z,52.56
2023-05-02T07:07:58.614Z,50.16
2023-05-02T07:10:25.372Z,52.14
2023-05-02T07:12:52.009Z,50.71
2023-05-02T07:15:18.653Z,48.68
2023-05-02T07:17:47.775Z,49.66
2023-05-02T07:20:15.666Z,48.40
2023-05-02T07:22:43.124Z,49.61
2023-05-02T07:25:09.990Z,50.05
2023-05-02T07:27:36.703Z,51.65
2023-05-02T07:30:03.966Z,48.28
2023-05-02T07:32:31.505Z,49.91
2023-05-02T07:34:58.258Z,50.87
2023-05-02T07:37:24.997Z,49.18
2023-05-02T07:39:51.671Z,48.30
2023-05-02T07:42:18.345Z,49.85
2023-05-02T07:44:44.949Z,48.87
2023-05-02T07:47:11.572Z,49.82
2023-05-02T07:49:38.215Z,49.04
2023-05-02T07:52:04.940Z,49.47
2023-05-02T07:54:31.605Z,49.38
2023-05-02T07:57:02.304Z,49.70
2023-05-02T07:59:31.128Z,48.96
2023-05-02T08:01:57.999Z,48.03
2023-05-02T08:04:24.908Z,49.00
2023-05-02T08:06:51.948Z,49.57
2023-05-02T08:09:18.635Z,49.54
2023-05-02T08:11:45.303Z,50.01
2023-05-02T08:14:11.965Z,50.51
2023-05-02T08:16:38.928Z,48.71
2023-05-02T08:19:05.766Z,48.25
2023-05-02T08:21:32.519Z,48.29
2023-05-02T08:23:59.481Z,47.74
2023-05-02T08:26:26.976Z,47.50
2023-05-02T08:28:56.693Z,50.18
2023-05-02T08:31:23.328Z,47.15
2023-05-02T08:33:49.923Z,45.96
2023-05-02T08:36:18.354Z,49.66
2023-05-02T08:38:46.538Z,46.08
2023-05-02T08:41:16.957Z,44.69
2023-05-02T08:43:44.473Z,45.39
2023-05-02T08:46:12.730Z,47.14
2023-05-02T08:48:48.228Z,46.39
2023-05-02T08:51:16.938Z,43.93
2023-05-02T08:53:44.444Z,44.69
2023-05-02T08:56:13.042Z,43.41
2023-05-02T08:58:41.244Z,44.59
2023-05-02T09:01:15.750Z,41.74
2023-05-02T09:03:47.413Z,42.32
2023-05-02T09:06:18.042Z,42.05
2023-05-02T09:08:48.805Z,43.24
2023-05-02T09:11:17.047Z,43.55
2023-05-02T09:13:47.610Z,41.77
2023-05-02T09:16:25.831Z,42.00
2023-05-02T09:18:54.525Z,41.19
2023-05-02T09:21:26.142Z,41.89
2023-05-02T09:23:55.336Z,41.74
2023-05-02T09:26:27.490Z,42.78
2023-05-02T09:28:56.520Z,40.35
2023-05-02T09:31:49.923Z,41.21
2023-05-02T09:34:17.092Z,40.61
2023-05-02T09:36:44.988Z,41.27
2023-05-02T09:39:14.067Z,41.00
2023-05-02T09:41:45.386Z,41.52
2023-05-02T09:44:14.222Z,40.76
2023-05-02T09:46:45.745Z,40.70
2023-05-02T09:49:12.442Z,39.51
2023-05-02T09:51:39.106Z,40.25
2023-05-02T09:54:05.760Z,40.13
2023-05-02T09:56:32.497Z,38.34
2023-05-02T09:59:16.264Z,38.84
2023-05-02T10:01:43.376Z,38.41
2023-05-02T10:04:18.810Z,39.24
2023-05-02T10:06:47.364Z,39.88
2023-05-02T10:09:19.749Z,39.50
2023-05-02T10:11:52.323Z,38.22
2023-05-02T10:14:21.553Z,37.65
2023-05-02T10:17:01.558Z,38.04
2023-05-02T10:19:33.798Z,40.58
2023-05-02T10:22:00.840Z,38.56
2023-05-02T10:24:28.966Z,39.21
2023-05-02T10:26:55.906Z,38.33
2023-05-02T10:29:22.713Z,36.92
2023-05-02T10:31:50.403Z,36.23
2023-05-02T10:34:18.824Z,35.73
2023-05-02T10:36:46.056Z,36.72
2023-05-02T10:39:12.787Z,37.34
2023-05-02T10:41:41.703Z,37.95
2023-05-02T10:44:08.902Z,36.27
2023-05-02T10:46:37.413Z,35.20
2023-05-02T10:49:08.886Z,35.30
2023-05-02T10:51:37.331Z,36.65
2023-05-02T10:54:23.736Z,35.58
2023-05-02T10:57:05.899Z,37.91
2023-05-02T10:59:40.779Z,37.36
2023-05-02T11:02:26.128Z,37.82
2023-05-02T11:05:06.168Z,37.44
2023-05-02T11:07:37.171Z,37.53
2023-05-02T11:10:20.306Z,38.64
2023-05-02T11:12:51.238Z,37.66
2023-05-02T11:15:30.036Z,36.63
2023-05-02T11:18:07.546Z,36.57
2023-05-02T11:20:35.965Z,37.48
2023-05-02T11:23:26.226Z,38.03
2023-05-02T11:25:57.860Z,37.82
2023-05-02T11:28:36.763Z,37.37
2023-05-02T11:31:04.688Z,36.23
2023-05-02T11:33:31.656Z,35.55
2023-05-02T11:35:58.909Z,37.76
2023-05-02T11:38:26.111Z,35.89
2023-05-02T11:40:54.820Z,36.62
2023-05-02T11:43:22.544Z,35.92
2023-05-02T11:45:49.489Z,37.46
2023-05-02T11:48:18.888Z,36.09
2023-05-02T11:50:50.090Z,35.85
2023-05-02T11:53:20.066Z,36.13
2023-05-02T11:55:57.615Z,36.33
2023-05-02T11:58:32.595Z,36.61
2023-05-02T12:01:13.346Z,36.43
2023-05-02T12:03:40.843Z,36.14
2023-05-02T12:06:16.073Z,36.18
2023-05-02T12:08:44.378Z,38.49
2023-05-02T12:11:14.656Z,35.58
2023-05-02T12:13:48.594Z,36.76
2023-05-02T12:16:16.347Z,36.37
2023-05-02T12:18:43.450Z,35.49
2023-05-02T12:21:10.505Z,35.58
2023-05-02T12:23:37.964Z,36.15
2023-05-02T12:26:37.237Z,36.45
2023-05-02T12:29:06.688Z,38.23
2023-05-02T12:31:33.687Z,36.74
2023-05-02T12:34:01.430Z,36.33
2023-05-02T12:36:28.979Z,36.52
2023-05-02T12:38:59.503Z,36.16
2023-05-02T12:41:43.711Z,37.28
2023-05-02T12:44:10.350Z,36.57
2023-05-02T12:46:37.117Z,36.90
2023-05-02T12:49:06.122Z,36.05
2023-05-02T12:51:34.389Z,38.46
2023-05-02T12:54:01.349Z,35.82
2023-05-02T12:56:32.278Z,37.27
2023-05-02T12:59:05.095Z,37.10
2023-05-02T13:04:00.808Z,38.88
2023-05-02T13:06:27.832Z,38.22
2023-05-02T13:08:54.494Z,36.49
2023-05-02T13:11:21.125Z,36.66
2023-05-02T13:13:47.697Z,35.84
2023-05-02T13:16:14.421Z,36.69
2023-05-02T13:18:41.202Z,38.55
2023-05-02T13:21:08.233Z,38.09
2023-05-02T13:23:34.825Z,38.15
2023-05-02T13:26:01.397Z,39.61
2023-05-02T13:28:30.393Z,37.67
2023-05-02T13:30:57.016Z,38.83
2023-05-02T13:33:23.707Z,38.94
2023-05-02T13:35:50.400Z,39.52
2023-05-02T13:38:17.039Z,39.53
2023-05-02T13:40:43.658Z,40.29
2023-05-02T13:43:10.287Z,41.15
2023-05-02T13:45:36.965Z,40.32
2023-05-02T13:48:03.690Z,38.28
2023-05-02T13:50:30.800Z,39.46
2023-05-02T13:52:57.401Z,38.62
2023-05-02T13:55:24.034Z,41.52
2023-05-02T13:57:50.763Z,39.94
2023-05-02T14:00:17.914Z,38.87
2023-05-02T14:02:46.939Z,39.81
2023-05-02T14:05:13.660Z,38.72
2023-05-02T14:07:40.383Z,40.05
2023-05-02T14:10:07.865Z,40.23
2023-05-02T14:12:34.454Z,40.46
2023-05-02T14:15:01.382Z,40.94
2023-05-02T14:17:28.116Z,40.36
2023-05-02T14:19:54.780Z,40.62
2023-05-02T14:22:21.578Z,39.68
2023-05-02T14:24:48.269Z,40.24
2023-05-02T14:27:18.404Z,40.30
2023-05-02T14:29:45.956Z,40.28
2023-05-02T14:32:13.093Z,39.47
2023-05-02T14:34:40.535Z,39.66
2023-05-02T14:37:08.797Z,39.22
2023-05-02T14:39:36.735Z,39.40
2023-05-02T14:42:04.413Z,40.07
2023-05-02T14:44:31.551Z,40.59
2023-05-02T14:46:58.311Z,40.43
2023-05-02T14:49:25.515Z,40.03
2023-05-02T14:51:52.558Z,39.51
2023-05-02T14:54:20.423Z,39.80
2023-05-02T14:56:48.320Z,39.43
2023-05-02T14:59:15.004Z,39.65
2023-05-02T15:01:41.722Z,40.14
2023-05-02T15:04:08.852Z,40.65
2023-05-02T15:06:36.453Z,40.74
2023-05-02T15:09:03.557Z,39.68
2023-05-02T15:11:30.225Z,39.51
2023-05-02T15:13:59.226Z,39.02
2023-05-02T15:16:27.276Z,39.56
2023-05-02T15:18:54.359Z,39.38
2023-05-02T15:21:21.646Z,39.32
2023-05-02T15:23:48.145Z,38.72
2023-05-02T15:26:14.902Z,39.05
2023-05-02T15:28:41.667Z,39.13
2023-05-02T15:31:08.350Z,38.72
2023-05-02T15:33:35.090Z,39.82
2023-05-02T15:36:01.749Z,39.38
2023-05-02T15:38:28.390Z,38.31
2023-05-02T15:40:59.637Z,38.73
2023-05-02T15:43:27.070Z,38.33
2023-05-02T15:45:56.335Z,37.96
2023-05-02T15:48:26.749Z,38.83
2023-05-02T15:50:53.551Z,38.18
2023-05-02T15:53:22.976Z,38.83
2023-05-02T15:55:51.125Z,38.72
2023-05-02T15:58:18.722Z,38.23
2023-05-02T16:00:46.989Z,37.07
2023-05-02T16:03:14.039Z,37.39
2023-05-02T16:05:41.229Z,38.49
2023-05-02T16:08:07.842Z,38.16
2023-05-02T16:10:36.687Z,38.38
2023-05-02T16:13:03.591Z,38.04
2023-05-02T16:15:30.571Z,38.80
2023-05-02T16:17:57.372Z,37.90
2023-05-02T16:20:24.368Z,37.93
2023-05-02T16:22:51.448Z,37.79
2023-05-02T16:25:18.986Z,37.80
2023-05-02T16:27:45.764Z,38.22
2023-05-02T16:30:12.971Z,38.13
2023-05-02T16:32:39.496Z,38.40
2023-05-02T16:35:08.384Z,37.07
2023-05-02T16:37:35.646Z,38.46
2023-05-02T16:40:05.426Z,37.86
2023-05-02T16:42:32.700Z,37.86
2023-05-02T16:44:59.649Z,37.54
2023-05-02T16:47:28.056Z,38.02
2023-05-02T16:49:55.605Z,38.05
2023-05-02T16:52:22.812Z,38.32
2023-05-02T16:54:50.009Z,38.33
2023-05-02T16:57:21.180Z,38.69
2023-05-02T16:59:52.478Z,38.57
2023-05-02T17:02:22.783Z,39.11
2023-05-02T17:04:50.215Z,39.00
2023-05-02T17:07:16.920Z,39.58
2023-05-02T17:09:44.576Z,39.54
2023-05-02T17:12:12.777Z,39.58
2023-05-02T17:14:42.427Z,39.16
2023-05-02T17:17:10.026Z,41.06
2023-05-02T17:19:37.124Z,39.92
2023-05-02T17:22:05.307Z,40.73
2023-05-02T17:24:33.295Z,40.13
2023-05-02T17:27:01.023Z,40.19
2023-05-02T17:29:27.630Z,39.37
2023-05-02T17:31:57.021Z,41.01
2023-05-02T17:34:28.462Z,41.03
2023-05-02T17:36:55.152Z,40.49
2023-05-02T17:39:22.858Z,40.08
2023-05-02T17:41:49.423Z,42.59
2023-05-02T17:44:16.513Z,42.22
2023-05-02T17:46:43.347Z,43.01
2023-05-02T17:49:10.134Z,40.90
2023-05-02T17:51:36.756Z,41.42
2023-05-02T17:54:03.381Z,48.50
2023-05-02T17:56:30.227Z,47.10
2023-05-02T17:58:57.182Z,43.35
2023-05-02T18:01:23.882Z,45.72
2023-05-02T18:03:50.658Z,45.83
2023-05-02T18:06:18.473Z,45.30
2023-05-02T18:08:45.811Z,46.36
2023-05-02T18:11:19.152Z,45.72
2023-05-02T18:13:47.190Z,46.39
2023-05-02T18:16:14.260Z,45.45
2023-05-02T18:18:41.260Z,42.76
2023-05-02T18:21:09.457Z,42.02
2023-05-02T18:23:36.196Z,41.98
2023-05-02T18:26:03.275Z,42.99
2023-05-02T18:28:30.236Z,43.29
2023-05-02T18:30:56.839Z,43.35
2023-05-02T18:33:23.570Z,44.70
2023-05-02T18:35:50.817Z,45.91
2023-05-02T18:38:17.661Z,45.61
2023-05-02T18:40:44.528Z,48.16
2023-05-02T18:43:11.292Z,50.38
2023-05-02T18:45:37.988Z,52.85
2023-05-02T18:48:04.838Z,52.96
2023-05-02T18:50:31.729Z,53.91
2023-05-02T18:52:58.359Z,54.36
2023-05-02T18:55:25.469Z,53.76
2023-05-02T18:57:52.245Z,54.99
2023-05-02T19:00:20.413Z,54.74
2023-05-02T19:02:47.932Z,55.06
2023-05-02T19:05:15.300Z,56.40
2023-05-02T19:07:42.512Z,57.01
2023-05-02T19:10:11.048Z,57.96
2023-05-02T19:12:37.997Z,59.18
2023-05-02T19:15:06.845Z,58.90
2023-05-02T19:17:33.757Z,59.53
2023-05-02T19:20:00.460Z,58.97
2023-05-02T19:22:27.828Z,60.62
2023-05-02T19:24:54.409Z,61.87
2023-05-02T19:27:21.067Z,61.46
2023-05-02T19:29:47.686Z,63.83
2023-05-02T19:32:14.824Z,62.46
2023-05-02T19:34:41.634Z,61.73
2023-05-02T19:37:08.446Z,59.29
2023-05-02T19:39:35.042Z,60.98
2023-05-02T19:42:01.801Z,61.59
2023-05-02T19:44:28.364Z,61.28
2023-05-02T19:46:54.950Z,61.65
2023-05-02T19:49:21.569Z,60.83
2023-05-02T19:51:48.262Z,62.64
2023-05-02T19:54:14.929Z,64.03
2023-05-02T19:56:43.201Z,61.76
2023-05-02T19:59:09.855Z,66.86
2023-05-02T20:01:36.652Z,67.67
2023-05-02T20:04:03.312Z,66.98
2023-05-02T20:06:31.569Z,65.63
2023-05-02T20:08:58.272Z,67.66
2023-05-02T20:11:25.978Z,68.83
2023-05-02T20:13:52.849Z,69.43
2023-05-02T20:16:19.492Z,69.69
2023-05-02T20:18:46.135Z,66.55
2023-05-02T20:21:12.956Z,69.23
2023-05-02T20:23:43.270Z,67.57
2023-05-02T20:26:10.079Z,68.96
2023-05-02T20:28:37.766Z,71.10
2023-05-02T20:31:04.727Z,70.73
2023-05-02T20:33:43.964Z,68.78
2023-05-02T20:36:13.432Z,69.47
2023-05-02T20:38:42.638Z,71.44
2023-05-02T20:41:13.033Z,71.35
2023-05-02T20:43:44.946Z,69.86
2023-05-02T20:46:14.048Z,68.68
2023-05-02T20:48:40.918Z,67.69
2023-05-02T20:51:08.803Z,71.30
2023-05-02T20:53:39.251Z,72.49
2023-05-02T20:56:07.189Z,71.47
2023-05-02T20:58:33.911Z,71.85
2023-05-02T21:01:00.852Z,71.70
2023-05-02T21:03:27.965Z,71.77
2023-05-02T21:05:56.092Z,71.32
2023-05-02T21:08:23.196Z,70.33
2023-05-02T21:10:49.925Z,72.34
2023-05-02T21:13:16.512Z,72.60
2023-05-02T21:15:43.117Z,70.31
2023-05-02T21:18:09.867Z,73.88
2023-05-02T21:20:38.318Z,73.32
2023-05-02T21:23:05.155Z,73.42
2023-05-02T21:25:31.732Z,71.87
2023-05-02T21:27:58.319Z,73.35
2023-05-02T21:30:24.966Z,72.91
2023-05-02T21:32:51.705Z,70.08
2023-05-02T21:35:18.447Z,71.47
2023-05-02T21:37:45.067Z,69.43
2023-05-02T21:40:12.334Z,68.68
2023-05-02T21:42:38.969Z,67.99
2023-05-02T21:45:06.555Z,68.22
2023-05-02T21:47:33.290Z,67.45
2023-05-02T21:50:00.302Z,68.46
2023-05-02T21:52:27.345Z,67.67
2023-05-02T21:54:54.223Z,67.76
2023-05-02T21:57:21.306Z,69.32
2023-05-02T21:59:48.273Z,69.22
2023-05-02T22:02:15.036Z,69.30
2023-05-02T22:04:41.764Z,69.47
2023-05-02T22:07:08.498Z,69.21
2023-05-02T22:09:35.186Z,67.36
2023-05-02T22:12:02.934Z,67.84
2023-05-02T22:14:37.603Z,68.71
2023-05-02T22:17:10.605Z,69.74
2023-05-02T22:19:38.784Z,70.28
2023-05-02T22:22:05.613Z,72.38
2023-05-02T22:24:32.241Z,70.80
2023-05-02T22:26:58.868Z,70.05
2023-05-02T22:29:25.437Z,68.66
2023-05-02T22:31:52.288Z,73.22
2023-05-02T22:34:19.189Z,72.88
2023-05-02T22:36:46.233Z,71.49
2023-05-02T22:39:15.664Z,70.01
2023-05-02T22:41:42.912Z,68.95
2023-05-02T22:44:11.233Z,68.28
2023-05-02T22:46:38.883Z,67.64
2023-05-02T22:49:09.537Z,72.65
2023-05-02T22:51:38.043Z,73.18
2023-05-02T22:54:05.933Z,74.18
2023-05-02T22:56:32.640Z,72.46
2023-05-02T22:58:59.272Z,71.75
2023-05-02T23:01:26.066Z,70.17
2023-05-02T23:03:52.793Z,70.36
2023-05-02T23:06:19.426Z,71.75
2023-05-02T23:08:46.144Z,71.03
2023-05-02T23:11:12.794Z,70.92
2023-05-02T23:13:39.385Z,73.78
2023-05-02T23:16:06.217Z,76.18
2023-05-02T23:18:33.187Z,76.50
2023-05-02T23:20:59.727Z,78.15
2023-05-02T23:23:26.510Z,76.84
2023-05-02T23:25:53.095Z,72.58
2023-05-02T23:28:19.750Z,74.04
2023-05-02T23:30:46.768Z,75.84
2023-05-02T23:33:14.028Z,75.76
2023-05-02T23:35:40.817Z,74.61
2023-05-02T23:38:10.428Z,76.90
2023-05-02T23:40:37.090Z,73.80
2023-05-02T23:43:03.790Z,75.73
2023-05-02T23:45:30.347Z,73.72
2023-05-02T23:47:57.036Z,73.96
2023-05-02T23:50:23.699Z,70.58
2023-05-02T23:52:50.463Z,74.92
2023-05-02T23:55:17.173Z,73.84
2023-05-02T23:57:43.824Z,74.69
